Aviation Digital Data Service (ADDS)

Output produced by METARs form (1733 UTC 03 June 2020)
found at http://www.aviationweather.gov/metar/data/
 
METAR text: WIII 031730Z 20004KT 6000 FEW020 27/23 Q1011 NOSIG
Conditions at: WIII (SOEKARNO-HATTA I, ID) observed 1730 UTC 03 June 2020
Temperature: 27.0°C (81°F)
Dewpoint: 23.0°C (73°F) [RH = 79%]
Pressure (altimeter): 29.85 inches Hg (1011.0 mb)
Winds: from the SSW (200 degrees) at 5 MPH (4 knots; 2.1 m/s)
Visibility: 4 miles ( 6 km)
Ceiling: at least 12,000 feet AGL
Clouds: few clouds at 2000 feet AGL
Weather: no significant weather observed at this time

METAR text: WIII 031700Z 12006KT 6000 FEW020 28/23 Q1011 NOSIG
Conditions at: WIII (SOEKARNO-HATTA I, ID) observed 1700 UTC 03 June 2020
Temperature: 28.0°C (82°F)
Dewpoint: 23.0°C (73°F) [RH = 74%]
Pressure (altimeter): 29.85 inches Hg (1011.0 mb)
Winds: from the ESE (120 degrees) at 7 MPH (6 knots; 3.1 m/s)
Visibility: 4 miles ( 6 km)
Ceiling: at least 12,000 feet AGL
Clouds: few clouds at 2000 feet AGL
Weather: no significant weather observed at this time

METAR text: WIII 031630Z 12006KT 6000 FEW020 27/23 Q1011 NOSIG
Conditions at: WIII (SOEKARNO-HATTA I, ID) observed 1630 UTC 03 June 2020
Temperature: 27.0°C (81°F)
Dewpoint: 23.0°C (73°F) [RH = 79%]
Pressure (altimeter): 29.85 inches Hg (1011.0 mb)
Winds: from the ESE (120 degrees) at 7 MPH (6 knots; 3.1 m/s)
Visibility: 4 miles ( 6 km)
Ceiling: at least 12,000 feet AGL
Clouds: few clouds at 2000 feet AGL
Weather: no significant weather observed at this time

METAR text: WIII 031600Z 11005KT 6000 FEW020 27/23 Q1011 NOSIG
Conditions at: WIII (SOEKARNO-HATTA I, ID) observed 1600 UTC 03 June 2020
Temperature: 27.0°C (81°F)
Dewpoint: 23.0°C (73°F) [RH = 79%]
Pressure (altimeter): 29.85 inches Hg (1011.0 mb)
Winds: from the ESE (110 degrees) at 6 MPH (5 knots; 2.6 m/s)
Visibility: 4 miles ( 6 km)
Ceiling: at least 12,000 feet AGL
Clouds: few clouds at 2000 feet AGL
Weather: no significant weather observed at this time

METAR text: WIII 031530Z 12005KT 6000 FEW020 27/23 Q1011 NOSIG
Conditions at: WIII (SOEKARNO-HATTA I, ID) observed 1530 UTC 03 June 2020
Temperature: 27.0°C (81°F)
Dewpoint: 23.0°C (73°F) [RH = 79%]
Pressure (altimeter): 29.85 inches Hg (1011.0 mb)
Winds: from the ESE (120 degrees) at 6 MPH (5 knots; 2.6 m/s)
Visibility: 4 miles ( 6 km)
Ceiling: at least 12,000 feet AGL
Clouds: few clouds at 2000 feet AGL
Weather: no significant weather observed at this time

METAR text: WIII 031500Z 12006KT 7000 FEW020 27/23 Q1011 NOSIG
Conditions at: WIII (SOEKARNO-HATTA I, ID) observed 1500 UTC 03 June 2020
Temperature: 27.0°C (81°F)
Dewpoint: 23.0°C (73°F) [RH = 79%]
Pressure (altimeter): 29.85 inches Hg (1011.0 mb)
Winds: from the ESE (120 degrees) at 7 MPH (6 knots; 3.1 m/s)
Visibility: 4 miles ( 7 km)
Ceiling: at least 12,000 feet AGL
Clouds: few clouds at 2000 feet AGL
Weather: no significant weather observed at this time

METAR text: WIII 031430Z 11006KT 7000 FEW020 28/23 Q1011 NOSIG
Conditions at: WIII (SOEKARNO-HATTA I, ID) observed 1430 UTC 03 June 2020
Temperature: 28.0°C (82°F)
Dewpoint: 23.0°C (73°F) [RH = 74%]
Pressure (altimeter): 29.85 inches Hg (1011.0 mb)
Winds: from the ESE (110 degrees) at 7 MPH (6 knots; 3.1 m/s)
Visibility: 4 miles ( 7 km)
Ceiling: at least 12,000 feet AGL
Clouds: few clouds at 2000 feet AGL
Weather: no significant weather observed at this time

METAR text: WIII 031400Z 12005KT 7000 FEW20 28/23 Q1011 NOSIG
Conditions at: WIII (SOEKARNO-HATTA I, ID) observed 1400 UTC 03 June 2020
Temperature: 28.0°C (82°F)
Dewpoint: 23.0°C (73°F) [RH = 74%]
Pressure (altimeter): 29.85 inches Hg (1011.0 mb)
Winds: from the ESE (120 degrees) at 6 MPH (5 knots; 2.6 m/s)
Visibility: 4 miles ( 7 km)
Ceiling: unknown
Clouds: missing
Weather: no significant weather observed at this time

METAR text: WIII 031330Z 13005KT 7000 FEW020 28/23 Q1011 NOSIG
Conditions at: WIII (SOEKARNO-HATTA I, ID) observed 1330 UTC 03 June 2020
Temperature: 28.0°C (82°F)
Dewpoint: 23.0°C (73°F) [RH = 74%]
Pressure (altimeter): 29.85 inches Hg (1011.0 mb)
Winds: from the SE (130 degrees) at 6 MPH (5 knots; 2.6 m/s)
Visibility: 4 miles ( 7 km)
Ceiling: at least 12,000 feet AGL
Clouds: few clouds at 2000 feet AGL
Weather: no significant weather observed at this time

METAR text: WIII 031300Z 13007KT 7000 SCT020 28/23 Q1010 NOSIG
Conditions at: WIII (SOEKARNO-HATTA I, ID) observed 1300 UTC 03 June 2020
Temperature: 28.0°C (82°F)
Dewpoint: 23.0°C (73°F) [RH = 74%]
Pressure (altimeter): 29.82 inches Hg (1010.0 mb)
Winds: from the SE (130 degrees) at 8 MPH (7 knots; 3.6 m/s)
Visibility: 4 miles ( 7 km)
Ceiling: at least 12,000 feet AGL
Clouds: scattered clouds at 2000 feet AGL
Weather: no significant weather observed at this time

METAR text: WIII 031230Z 12006KT 7000 SCT020 28/23 Q1010 NOSIG
Conditions at: WIII (SOEKARNO-HATTA I, ID) observed 1230 UTC 03 June 2020
Temperature: 28.0°C (82°F)
Dewpoint: 23.0°C (73°F) [RH = 74%]
Pressure (altimeter): 29.82 inches Hg (1010.0 mb)
Winds: from the ESE (120 degrees) at 7 MPH (6 knots; 3.1 m/s)
Visibility: 4 miles ( 7 km)
Ceiling: at least 12,000 feet AGL
Clouds: scattered clouds at 2000 feet AGL
Weather: no significant weather observed at this time

METAR text: WIII 031200Z 12008KT 7000 FEW018CB FEW020 28/23 Q1010 NOSIG RMK CB TO SW
Conditions at: WIII (SOEKARNO-HATTA I, ID) observed 1200 UTC 03 June 2020
Temperature: 28.0°C (82°F)
Dewpoint: 23.0°C (73°F) [RH = 74%]
Pressure (altimeter): 29.82 inches Hg (1010.0 mb)
Winds: from the ESE (120 degrees) at 9 MPH (8 knots; 4.1 m/s)
Visibility: 4 miles ( 7 km)
Ceiling: at least 12,000 feet AGL
Clouds: few clouds at 1800 feet AGL
few clouds at 2000 feet AGL
Weather: no significant weather observed at this time

METAR text: WIII 031130Z 11009KT 7000 SCT020 28/23 Q1010 NOSIG
Conditions at: WIII (SOEKARNO-HATTA I, ID) observed 1130 UTC 03 June 2020
Temperature: 28.0°C (82°F)
Dewpoint: 23.0°C (73°F) [RH = 74%]
Pressure (altimeter): 29.82 inches Hg (1010.0 mb)
Winds: from the ESE (110 degrees) at 10 MPH (9 knots; 4.6 m/s)
Visibility: 4 miles ( 7 km)
Ceiling: at least 12,000 feet AGL
Clouds: scattered clouds at 2000 feet AGL
Weather: no significant weather observed at this time

METAR text: WIII 031100Z 12010KT 7000 FEW019CB FEW020 29/23 Q1009 NOSIG RMK CB TO SW
Conditions at: WIII (SOEKARNO-HATTA I, ID) observed 1100 UTC 03 June 2020
Temperature: 29.0°C (84°F)
Dewpoint: 23.0°C (73°F) [RH = 70%]
Pressure (altimeter): 29.79 inches Hg (1009.0 mb)
Winds: from the ESE (120 degrees) at 12 MPH (10 knots; 5.1 m/s)
Visibility: 4 miles ( 7 km)
Ceiling: at least 12,000 feet AGL
Clouds: few clouds at 1900 feet AGL
few clouds at 2000 feet AGL
Weather: no significant weather observed at this time

METAR text: WIII 031030Z 13011KT 9000 FEW019CB SCT020 29/23 Q1009 NOSIG RMK CB TO SW
Conditions at: WIII (SOEKARNO-HATTA I, ID) observed 1030 UTC 03 June 2020
Temperature: 29.0°C (84°F)
Dewpoint: 23.0°C (73°F) [RH = 70%]
Pressure (altimeter): 29.79 inches Hg (1009.0 mb)
Winds: from the SE (130 degrees) at 13 MPH (11 knots; 5.7 m/s)
Visibility: 6 miles ( 9 km)
Ceiling: at least 12,000 feet AGL
Clouds: few clouds at 1900 feet AGL
scattered clouds at 2000 feet AGL
Weather: no significant weather observed at this time

METAR text: WIII 031000Z 11013KT 8000 FEW019CB SCT020 30/23 Q1009 NOSIG RMK CB TO SW
Conditions at: WIII (SOEKARNO-HATTA I, ID) observed 1000 UTC 03 June 2020
Temperature: 30.0°C (86°F)
Dewpoint: 23.0°C (73°F) [RH = 66%]
Pressure (altimeter): 29.79 inches Hg (1009.0 mb)
Winds: from the ESE (110 degrees) at 15 MPH (13 knots; 6.7 m/s)
Visibility: 5 miles ( 8 km)
Ceiling: at least 12,000 feet AGL
Clouds: few clouds at 1900 feet AGL
scattered clouds at 2000 feet AGL
Weather: no significant weather observed at this time

METAR text: WIII 030930Z 10015KT 9000 FEW019CB SCT020 31/24 Q1008 NOSIG RMK CB TO SW
Conditions at: WIII (SOEKARNO-HATTA I, ID) observed 0930 UTC 03 June 2020
Temperature: 31.0°C (88°F)
Dewpoint: 24.0°C (75°F) [RH = 66%]
Pressure (altimeter): 29.76 inches Hg (1008.0 mb)
Winds: from the E (100 degrees) at 17 MPH (15 knots; 7.7 m/s)
Visibility: 6 miles ( 9 km)
Ceiling: at least 12,000 feet AGL
Clouds: few clouds at 1900 feet AGL
scattered clouds at 2000 feet AGL
Weather: no significant weather observed at this time

METAR text: WIII 030900Z 12014KT 9000 FEW019CB SCT020 31/23 Q1008 NOSIG RMK CB TO SW
Conditions at: WIII (SOEKARNO-HATTA I, ID) observed 0900 UTC 03 June 2020
Temperature: 31.0°C (88°F)
Dewpoint: 23.0°C (73°F) [RH = 63%]
Pressure (altimeter): 29.76 inches Hg (1008.0 mb)
Winds: from the ESE (120 degrees) at 16 MPH (14 knots; 7.2 m/s)
Visibility: 6 miles ( 9 km)
Ceiling: at least 12,000 feet AGL
Clouds: few clouds at 1900 feet AGL
scattered clouds at 2000 feet AGL
Weather: no significant weather observed at this time

METAR text: WIII 030830Z 15008KT 7000 -RA FEW018CB SCT020 29/24 Q1008 BECMG AT0900 NSW RMK CB TO SW
Conditions at: WIII (SOEKARNO-HATTA I, ID) observed 0830 UTC 03 June 2020
Temperature: 29.0°C (84°F)
Dewpoint: 24.0°C (75°F) [RH = 74%]
Pressure (altimeter): 29.76 inches Hg (1008.0 mb)
Winds: from the SSE (150 degrees) at 9 MPH (8 knots; 4.1 m/s)
Visibility: 4 miles ( 7 km)
Ceiling: at least 12,000 feet AGL
Clouds: few clouds at 1800 feet AGL
scattered clouds at 2000 feet AGL
Weather: -RA  (light rain)

METAR text: WIII 030800Z 16010KT 8000 -RA FEW018CB SCT020 27/24 Q1008 BECMG AT0820 NSW RMK CB TO S
Conditions at: WIII (SOEKARNO-HATTA I, ID) observed 0800 UTC 03 June 2020
Temperature: 27.0°C (81°F)
Dewpoint: 24.0°C (75°F) [RH = 84%]
Pressure (altimeter): 29.76 inches Hg (1008.0 mb)
Winds: from the SSE (160 degrees) at 12 MPH (10 knots; 5.1 m/s)
Visibility: 5 miles ( 8 km)
Ceiling: at least 12,000 feet AGL
Clouds: few clouds at 1800 feet AGL
scattered clouds at 2000 feet AGL
Weather: -RA  (light rain)

METAR text: WIII 030730Z 14014KT 5000 RA FEW017CB BKN018 28/24 Q1009 NOSIGRMK CB TO S
Conditions at: WIII (SOEKARNO-HATTA I, ID) observed 0730 UTC 03 June 2020
Temperature: 28.0°C (82°F)
Dewpoint: 24.0°C (75°F) [RH = 79%]
Pressure (altimeter): 29.79 inches Hg (1009.0 mb)
Winds: from the SE (140 degrees) at 16 MPH (14 knots; 7.2 m/s)
Visibility: 3 miles ( 5 km)
Ceiling: 1800 feet AGL
Clouds: few clouds at 1700 feet AGL
broken clouds at 1800 feet AGL
Weather: RA GR  (moderate rain, hail)

METAR text: WIII 030700Z 15012KT 9000 FEW019CB SCT020 31/24 Q1009 NOSIG RMK CB TO S
Conditions at: WIII (SOEKARNO-HATTA I, ID) observed 0700 UTC 03 June 2020
Temperature: 31.0°C (88°F)
Dewpoint: 24.0°C (75°F) [RH = 66%]
Pressure (altimeter): 29.79 inches Hg (1009.0 mb)
Winds: from the SSE (150 degrees) at 14 MPH (12 knots; 6.2 m/s)
Visibility: 6 miles ( 9 km)
Ceiling: at least 12,000 feet AGL
Clouds: few clouds at 1900 feet AGL
scattered clouds at 2000 feet AGL
Weather: no significant weather observed at this time

METAR text: WIII 030630Z 08015KT 9999 FEW019CB FEW020 32/24 Q1009 NOSIG RMK CB TO S
Conditions at: WIII (SOEKARNO-HATTA I, ID) observed 0630 UTC 03 June 2020
Temperature: 32.0°C (90°F)
Dewpoint: 24.0°C (75°F) [RH = 63%]
Pressure (altimeter): 29.79 inches Hg (1009.0 mb)
Winds: from the E (80 degrees) at 17 MPH (15 knots; 7.7 m/s)
Visibility: 6 or more miles (10+ km)
Ceiling: at least 12,000 feet AGL
Clouds: few clouds at 1900 feet AGL
few clouds at 2000 feet AGL
Weather: no significant weather observed at this time

METAR text: WIII 030600Z 08014KT 9000 FEW020 33/24 Q1009 NOSIG
Conditions at: WIII (SOEKARNO-HATTA I, ID) observed 0600 UTC 03 June 2020
Temperature: 33.0°C (91°F)
Dewpoint: 24.0°C (75°F) [RH = 59%]
Pressure (altimeter): 29.79 inches Hg (1009.0 mb)
Winds: from the E (80 degrees) at 16 MPH (14 knots; 7.2 m/s)
Visibility: 6 miles ( 9 km)
Ceiling: at least 12,000 feet AGL
Clouds: few clouds at 2000 feet AGL
Weather: no significant weather observed at this time

METAR text: WIII 030530Z 06017KT 9000 FEW020 32/25 Q1010 NOSIG
Conditions at: WIII (SOEKARNO-HATTA I, ID) observed 0530 UTC 03 June 2020
Temperature: 32.0°C (90°F)
Dewpoint: 25.0°C (77°F) [RH = 67%]
Pressure (altimeter): 29.82 inches Hg (1010.0 mb)
Winds: from the ENE (60 degrees) at 20 MPH (17 knots; 8.7 m/s)
Visibility: 6 miles ( 9 km)
Ceiling: at least 12,000 feet AGL
Clouds: few clouds at 2000 feet AGL
Weather: no significant weather observed at this time

METAR text: WIII 030500Z 07016KT 9000 FEW020 33/24 Q1010 NOSIG
Conditions at: WIII (SOEKARNO-HATTA I, ID) observed 0500 UTC 03 June 2020
Temperature: 33.0°C (91°F)
Dewpoint: 24.0°C (75°F) [RH = 59%]
Pressure (altimeter): 29.82 inches Hg (1010.0 mb)
Winds: from the ENE (70 degrees) at 18 MPH (16 knots; 8.2 m/s)
Visibility: 6 miles ( 9 km)
Ceiling: at least 12,000 feet AGL
Clouds: few clouds at 2000 feet AGL
Weather: no significant weather observed at this time

METAR text: WIII 030430Z 08014KT 9000 FEW020 32/24 Q1011 NOSIG
Conditions at: WIII (SOEKARNO-HATTA I, ID) observed 0430 UTC 03 June 2020
Temperature: 32.0°C (90°F)
Dewpoint: 24.0°C (75°F) [RH = 63%]
Pressure (altimeter): 29.85 inches Hg (1011.0 mb)
Winds: from the E (80 degrees) at 16 MPH (14 knots; 7.2 m/s)
Visibility: 6 miles ( 9 km)
Ceiling: at least 12,000 feet AGL
Clouds: few clouds at 2000 feet AGL
Weather: no significant weather observed at this time

METAR text: WIII 030400Z 08014KT 8000 FEW020 32/25 Q1011 NOSIG
Conditions at: WIII (SOEKARNO-HATTA I, ID) observed 0400 UTC 03 June 2020
Temperature: 32.0°C (90°F)
Dewpoint: 25.0°C (77°F) [RH = 67%]
Pressure (altimeter): 29.85 inches Hg (1011.0 mb)
Winds: from the E (80 degrees) at 16 MPH (14 knots; 7.2 m/s)
Visibility: 5 miles ( 8 km)
Ceiling: at least 12,000 feet AGL
Clouds: few clouds at 2000 feet AGL
Weather: no significant weather observed at this time

METAR text: WIII 030330Z 09013KT 9000 SCT020 32/25 Q1011 NOSIG
Conditions at: WIII (SOEKARNO-HATTA I, ID) observed 0330 UTC 03 June 2020
Temperature: 32.0°C (90°F)
Dewpoint: 25.0°C (77°F) [RH = 67%]
Pressure (altimeter): 29.85 inches Hg (1011.0 mb)
Winds: from the E (90 degrees) at 15 MPH (13 knots; 6.7 m/s)
Visibility: 6 miles ( 9 km)
Ceiling: at least 12,000 feet AGL
Clouds: scattered clouds at 2000 feet AGL
Weather: no significant weather observed at this time

METAR text: WIII 030300Z 11010KT 9000 SCT020 31/25 Q1011 NOSIG
Conditions at: WIII (SOEKARNO-HATTA I, ID) observed 0300 UTC 03 June 2020
Temperature: 31.0°C (88°F)
Dewpoint: 25.0°C (77°F) [RH = 71%]
Pressure (altimeter): 29.85 inches Hg (1011.0 mb)
Winds: from the ESE (110 degrees) at 12 MPH (10 knots; 5.1 m/s)
Visibility: 6 miles ( 9 km)
Ceiling: at least 12,000 feet AGL
Clouds: scattered clouds at 2000 feet AGL
Weather: no significant weather observed at this time

METAR text: WIII 030230Z 12009KT 9000 SCT020 31/25 Q1011 NOSIG
Conditions at: WIII (SOEKARNO-HATTA I, ID) observed 0230 UTC 03 June 2020
Temperature: 31.0°C (88°F)
Dewpoint: 25.0°C (77°F) [RH = 71%]
Pressure (altimeter): 29.85 inches Hg (1011.0 mb)
Winds: from the ESE (120 degrees) at 10 MPH (9 knots; 4.6 m/s)
Visibility: 6 miles ( 9 km)
Ceiling: at least 12,000 feet AGL
Clouds: scattered clouds at 2000 feet AGL
Weather: no significant weather observed at this time

METAR text: WIII 030200Z 12009KT 8000 FEW021 30/25 Q1012 NOSIG
Conditions at: WIII (SOEKARNO-HATTA I, ID) observed 0200 UTC 03 June 2020
Temperature: 30.0°C (86°F)
Dewpoint: 25.0°C (77°F) [RH = 75%]
Pressure (altimeter): 29.88 inches Hg (1012.0 mb)
Winds: from the ESE (120 degrees) at 10 MPH (9 knots; 4.6 m/s)
Visibility: 5 miles ( 8 km)
Ceiling: at least 12,000 feet AGL
Clouds: few clouds at 2100 feet AGL
Weather: no significant weather observed at this time

METAR text: WIII 030130Z 15006KT 7000 FEW021 29/25 Q1012 NOSIG
Conditions at: WIII (SOEKARNO-HATTA I, ID) observed 0130 UTC 03 June 2020
Temperature: 29.0°C (84°F)
Dewpoint: 25.0°C (77°F) [RH = 79%]
Pressure (altimeter): 29.88 inches Hg (1012.0 mb)
Winds: from the SSE (150 degrees) at 7 MPH (6 knots; 3.1 m/s)
Visibility: 4 miles ( 7 km)
Ceiling: at least 12,000 feet AGL
Clouds: few clouds at 2100 feet AGL
Weather: no significant weather observed at this time

METAR text: WIII 030100Z 15006KT 6000 FEW021 28/25 Q1012 NOSIG
Conditions at: WIII (SOEKARNO-HATTA I, ID) observed 0100 UTC 03 June 2020
Temperature: 28.0°C (82°F)
Dewpoint: 25.0°C (77°F) [RH = 84%]
Pressure (altimeter): 29.88 inches Hg (1012.0 mb)
Winds: from the SSE (150 degrees) at 7 MPH (6 knots; 3.1 m/s)
Visibility: 4 miles ( 6 km)
Ceiling: at least 12,000 feet AGL
Clouds: few clouds at 2100 feet AGL
Weather: no significant weather observed at this time

METAR text: WIII 030030Z 16006KT 5000 HZ FEW020 27/24 Q1011 NOSIG
Conditions at: WIII (SOEKARNO-HATTA I, ID) observed 0030 UTC 03 June 2020
Temperature: 27.0°C (81°F)
Dewpoint: 24.0°C (75°F) [RH = 84%]
Pressure (altimeter): 29.85 inches Hg (1011.0 mb)
Winds: from the SSE (160 degrees) at 7 MPH (6 knots; 3.1 m/s)
Visibility: 3 miles ( 5 km)
Ceiling: at least 12,000 feet AGL
Clouds: few clouds at 2000 feet AGL
Weather: HZ  (haze)

METAR text: WIII 030000Z VRB05KT 5000 HZ FEW022 26/24 Q1011 NOSIG
Conditions at: WIII (SOEKARNO-HATTA I, ID) observed 0000 UTC 03 June 2020
Temperature: 26.0°C (79°F)
Dewpoint: 24.0°C (75°F) [RH = 89%]
Pressure (altimeter): 29.85 inches Hg (1011.0 mb)
Winds: variable direction winds at 6 MPH (5 knots; 2.6 m/s)
Visibility: 3 miles ( 5 km)
Ceiling: at least 12,000 feet AGL
Clouds: few clouds at 2200 feet AGL
Weather: HZ  (haze)

METAR text: WIII 022330Z VRB03KT 6000 FEW021 25/23 Q1011 NOSIG
Conditions at: WIII (SOEKARNO-HATTA I, ID) observed 2330 UTC 02 June 2020
Temperature: 25.0°C (77°F)
Dewpoint: 23.0°C (73°F) [RH = 89%]
Pressure (altimeter): 29.85 inches Hg (1011.0 mb)
Winds: variable direction winds at 3 MPH (3 knots; 1.5 m/s)
Visibility: 4 miles ( 6 km)
Ceiling: at least 12,000 feet AGL
Clouds: few clouds at 2100 feet AGL
Weather: no significant weather observed at this time

METAR text: WIII 022300Z 21004KT 6000 FEW021 25/23 Q1010 NOSIG
Conditions at: WIII (SOEKARNO-HATTA I, ID) observed 2300 UTC 02 June 2020
Temperature: 25.0°C (77°F)
Dewpoint: 23.0°C (73°F) [RH = 89%]
Pressure (altimeter): 29.82 inches Hg (1010.0 mb)
Winds: from the SSW (210 degrees) at 5 MPH (4 knots; 2.1 m/s)
Visibility: 4 miles ( 6 km)
Ceiling: at least 12,000 feet AGL
Clouds: few clouds at 2100 feet AGL
Weather: no significant weather observed at this time

METAR text: WIII 022230Z 210034T 6000 FEW021 25/23 Q1010 NOSIG
Conditions at: WIII (SOEKARNO-HATTA I, ID) observed 2230 UTC 02 June 2020
Temperature: 25.0°C (77°F)
Dewpoint: 23.0°C (73°F) [RH = 89%]
Pressure (altimeter): 29.82 inches Hg (1010.0 mb)
Winds: missing
Visibility: 4 miles ( 6 km)
Ceiling: at least 12,000 feet AGL
Clouds: few clouds at 2100 feet AGL
Weather: no significant weather observed at this time

METAR text: WIII 022200Z VRB03KT 5000 HZ FEW020 25/23 Q1010 NOSIG
Conditions at: WIII (SOEKARNO-HATTA I, ID) observed 2200 UTC 02 June 2020
Temperature: 25.0°C (77°F)
Dewpoint: 23.0°C (73°F) [RH = 89%]
Pressure (altimeter): 29.82 inches Hg (1010.0 mb)
Winds: variable direction winds at 3 MPH (3 knots; 1.5 m/s)
Visibility: 3 miles ( 5 km)
Ceiling: at least 12,000 feet AGL
Clouds: few clouds at 2000 feet AGL
Weather: HZ  (haze)

METAR text: WIII 022130Z VRB03KT 5000 HZ FEW020 25/23 Q1010 NOSIG
Conditions at: WIII (SOEKARNO-HATTA I, ID) observed 2130 UTC 02 June 2020
Temperature: 25.0°C (77°F)
Dewpoint: 23.0°C (73°F) [RH = 89%]
Pressure (altimeter): 29.82 inches Hg (1010.0 mb)
Winds: variable direction winds at 3 MPH (3 knots; 1.5 m/s)
Visibility: 3 miles ( 5 km)
Ceiling: at least 12,000 feet AGL
Clouds: few clouds at 2000 feet AGL
Weather: HZ  (haze)

METAR text: WIII 022100Z VRB03KT 6000 SCT020 25/23 Q1010 RERA NOSIG
Conditions at: WIII (SOEKARNO-HATTA I, ID) observed 2100 UTC 02 June 2020
Temperature: 25.0°C (77°F)
Dewpoint: 23.0°C (73°F) [RH = 89%]
Pressure (altimeter): 29.82 inches Hg (1010.0 mb)
Winds: variable direction winds at 3 MPH (3 knots; 1.5 m/s)
Visibility: 4 miles ( 6 km)
Ceiling: at least 12,000 feet AGL
Clouds: scattered clouds at 2000 feet AGL
Weather: no significant weather observed at this time

METAR text: WIII 022030Z VRB05KT 5000 -RA FEW019CB SCT020 25/23 Q1010 NOSIG RMK CB TO N
Conditions at: WIII (SOEKARNO-HATTA I, ID) observed 2030 UTC 02 June 2020
Temperature: 25.0°C (77°F)
Dewpoint: 23.0°C (73°F) [RH = 89%]
Pressure (altimeter): 29.82 inches Hg (1010.0 mb)
Winds: variable direction winds at 6 MPH (5 knots; 2.6 m/s)
Visibility: 3 miles ( 5 km)
Ceiling: at least 12,000 feet AGL
Clouds: few clouds at 1900 feet AGL
scattered clouds at 2000 feet AGL
Weather: -RA  (light rain)

METAR text: WIII 022000Z 22003KT 6000 FEW019CB FEW020 25/23 Q1010 TEMPO FM2015 4000 TSRA RMK CB TO NE
Conditions at: WIII (SOEKARNO-HATTA I, ID) observed 2000 UTC 02 June 2020
Temperature: 25.0°C (77°F)
Dewpoint: 23.0°C (73°F) [RH = 89%]
Pressure (altimeter): 29.82 inches Hg (1010.0 mb)
Winds: from the SW (220 degrees) at 3 MPH (3 knots; 1.5 m/s)
Visibility: 4 miles ( 6 km)
Ceiling: at least 12,000 feet AGL
Clouds: few clouds at 1900 feet AGL
few clouds at 2000 feet AGL
Weather: no significant weather observed at this time

METAR text: WIII 021930Z 22003KT 7000 FEW020 25/23 Q1010 NOSIG
Conditions at: WIII (SOEKARNO-HATTA I, ID) observed 1930 UTC 02 June 2020
Temperature: 25.0°C (77°F)
Dewpoint: 23.0°C (73°F) [RH = 89%]
Pressure (altimeter): 29.82 inches Hg (1010.0 mb)
Winds: from the SW (220 degrees) at 3 MPH (3 knots; 1.5 m/s)
Visibility: 4 miles ( 7 km)
Ceiling: at least 12,000 feet AGL
Clouds: few clouds at 2000 feet AGL
Weather: no significant weather observed at this time

METAR text: WIII 021900Z 22003KT 7000 SCT020 25/23 Q1011 NOSIG
Conditions at: WIII (SOEKARNO-HATTA I, ID) observed 1900 UTC 02 June 2020
Temperature: 25.0°C (77°F)
Dewpoint: 23.0°C (73°F) [RH = 89%]
Pressure (altimeter): 29.85 inches Hg (1011.0 mb)
Winds: from the SW (220 degrees) at 3 MPH (3 knots; 1.5 m/s)
Visibility: 4 miles ( 7 km)
Ceiling: at least 12,000 feet AGL
Clouds: scattered clouds at 2000 feet AGL
Weather: no significant weather observed at this time

METAR text: WIII 021830Z VRB03KT 7000 SCT020 25/23 Q1011 NOSIG
Conditions at: WIII (SOEKARNO-HATTA I, ID) observed 1830 UTC 02 June 2020
Temperature: 25.0°C (77°F)
Dewpoint: 23.0°C (73°F) [RH = 89%]
Pressure (altimeter): 29.85 inches Hg (1011.0 mb)
Winds: variable direction winds at 3 MPH (3 knots; 1.5 m/s)
Visibility: 4 miles ( 7 km)
Ceiling: at least 12,000 feet AGL
Clouds: scattered clouds at 2000 feet AGL
Weather: no significant weather observed at this time

METAR text: WIII 021800Z 23002KT 7000 SCT020 25/23 Q1011 NOSIG
Conditions at: WIII (SOEKARNO-HATTA I, ID) observed 1800 UTC 02 June 2020
Temperature: 25.0°C (77°F)
Dewpoint: 23.0°C (73°F) [RH = 89%]
Pressure (altimeter): 29.85 inches Hg (1011.0 mb)
Winds: from the SW (230 degrees) at 2 MPH (2 knots; 1.0 m/s)
Visibility: 4 miles ( 7 km)
Ceiling: at least 12,000 feet AGL
Clouds: scattered clouds at 2000 feet AGL
Weather: no significant weather observed at this time

METAR text: WIII 021730Z 20003KT 8000 SCT020 25/23 Q1011 NOSIG
Conditions at: WIII (SOEKARNO-HATTA I, ID) observed 1730 UTC 02 June 2020
Temperature: 25.0°C (77°F)
Dewpoint: 23.0°C (73°F) [RH = 89%]
Pressure (altimeter): 29.85 inches Hg (1011.0 mb)
Winds: from the SSW (200 degrees) at 3 MPH (3 knots; 1.5 m/s)
Visibility: 5 miles ( 8 km)
Ceiling: at least 12,000 feet AGL
Clouds: scattered clouds at 2000 feet AGL
Weather: no significant weather observed at this time

METAR text: WIII 021700Z VRB03KT 7000 SCT020 25/23 Q1012 NOSIG
Conditions at: WIII (SOEKARNO-HATTA I, ID) observed 1700 UTC 02 June 2020
Temperature: 25.0°C (77°F)
Dewpoint: 23.0°C (73°F) [RH = 89%]
Pressure (altimeter): 29.88 inches Hg (1012.0 mb)
Winds: variable direction winds at 3 MPH (3 knots; 1.5 m/s)
Visibility: 4 miles ( 7 km)
Ceiling: at least 12,000 feet AGL
Clouds: scattered clouds at 2000 feet AGL
Weather: no significant weather observed at this time

METAR text: WIII 021630Z VRB03KT 7000 SCT020 25/23 Q1012 NOSIG
Conditions at: WIII (SOEKARNO-HATTA I, ID) observed 1630 UTC 02 June 2020
Temperature: 25.0°C (77°F)
Dewpoint: 23.0°C (73°F) [RH = 89%]
Pressure (altimeter): 29.88 inches Hg (1012.0 mb)
Winds: variable direction winds at 3 MPH (3 knots; 1.5 m/s)
Visibility: 4 miles ( 7 km)
Ceiling: at least 12,000 feet AGL
Clouds: scattered clouds at 2000 feet AGL
Weather: no significant weather observed at this time

METAR text: WIII 021600Z VRB04KT 7000 SCT020 25/23 Q1012 NOSIG
Conditions at: WIII (SOEKARNO-HATTA I, ID) observed 1600 UTC 02 June 2020
Temperature: 25.0°C (77°F)
Dewpoint: 23.0°C (73°F) [RH = 89%]
Pressure (altimeter): 29.88 inches Hg (1012.0 mb)
Winds: variable direction winds at 5 MPH (4 knots; 2.1 m/s)
Visibility: 4 miles ( 7 km)
Ceiling: at least 12,000 feet AGL
Clouds: scattered clouds at 2000 feet AGL
Weather: no significant weather observed at this time

METAR text: WIII 021530Z 22004KT 7000 SCT020 25/23 Q1012 NOSIG
Conditions at: WIII (SOEKARNO-HATTA I, ID) observed 1530 UTC 02 June 2020
Temperature: 25.0°C (77°F)
Dewpoint: 23.0°C (73°F) [RH = 89%]
Pressure (altimeter): 29.88 inches Hg (1012.0 mb)
Winds: from the SW (220 degrees) at 5 MPH (4 knots; 2.1 m/s)
Visibility: 4 miles ( 7 km)
Ceiling: at least 12,000 feet AGL
Clouds: scattered clouds at 2000 feet AGL
Weather: no significant weather observed at this time

METAR text: WIII 021500Z VRB05KT 7000 SCT020 25/23 Q1012 NOSIG
Conditions at: WIII (SOEKARNO-HATTA I, ID) observed 1500 UTC 02 June 2020
Temperature: 25.0°C (77°F)
Dewpoint: 23.0°C (73°F) [RH = 89%]
Pressure (altimeter): 29.88 inches Hg (1012.0 mb)
Winds: variable direction winds at 6 MPH (5 knots; 2.6 m/s)
Visibility: 4 miles ( 7 km)
Ceiling: at least 12,000 feet AGL
Clouds: scattered clouds at 2000 feet AGL
Weather: no significant weather observed at this time

METAR text: WIII 021430Z 20006KT 7000 VCTS FEW020CB SCT020 25/23 Q1012 NOSIG RMK CB TO SW
Conditions at: WIII (SOEKARNO-HATTA I, ID) observed 1430 UTC 02 June 2020
Temperature: 25.0°C (77°F)
Dewpoint: 23.0°C (73°F) [RH = 89%]
Pressure (altimeter): 29.88 inches Hg (1012.0 mb)
Winds: from the SSW (200 degrees) at 7 MPH (6 knots; 3.1 m/s)
Visibility: 4 miles ( 7 km)
Ceiling: at least 12,000 feet AGL
Clouds: few clouds at 2000 feet AGL
scattered clouds at 2000 feet AGL
Weather: VCTS  (thunderstorm in vicinity)

METAR text: WIII 021400Z 20007KT 7000 FEW020CB SCT020 25/23 Q1012 NOSIG RMK CB TO SW
Conditions at: WIII (SOEKARNO-HATTA I, ID) observed 1400 UTC 02 June 2020
Temperature: 25.0°C (77°F)
Dewpoint: 23.0°C (73°F) [RH = 89%]
Pressure (altimeter): 29.88 inches Hg (1012.0 mb)
Winds: from the SSW (200 degrees) at 8 MPH (7 knots; 3.6 m/s)
Visibility: 4 miles ( 7 km)
Ceiling: at least 12,000 feet AGL
Clouds: few clouds at 2000 feet AGL
scattered clouds at 2000 feet AGL
Weather: no significant weather observed at this time

METAR text: WIII 021330Z 19007KT 7000 -RA FEW020CB SCT020 26/24 Q1012 NOSIG RMK CB TO SW
Conditions at: WIII (SOEKARNO-HATTA I, ID) observed 1330 UTC 02 June 2020
Temperature: 26.0°C (79°F)
Dewpoint: 24.0°C (75°F) [RH = 89%]
Pressure (altimeter): 29.88 inches Hg (1012.0 mb)
Winds: from the S (190 degrees) at 8 MPH (7 knots; 3.6 m/s)
Visibility: 4 miles ( 7 km)
Ceiling: at least 12,000 feet AGL
Clouds: few clouds at 2000 feet AGL
scattered clouds at 2000 feet AGL
Weather: -RA  (light rain)

METAR text: WIII 021300Z 17007KT 7000 -RA FEW020CB SCT021 27/23 Q1011 NOSIG RMK CB TO S
Conditions at: WIII (SOEKARNO-HATTA I, ID) observed 1300 UTC 02 June 2020
Temperature: 27.0°C (81°F)
Dewpoint: 23.0°C (73°F) [RH = 79%]
Pressure (altimeter): 29.85 inches Hg (1011.0 mb)
Winds: from the S (170 degrees) at 8 MPH (7 knots; 3.6 m/s)
Visibility: 4 miles ( 7 km)
Ceiling: at least 12,000 feet AGL
Clouds: few clouds at 2000 feet AGL
scattered clouds at 2100 feet AGL
Weather: -RA  (light rain)

METAR text: WIII 021230Z 05007KT 7000 FEW022CB SCT022 29/25 Q1011 NOSIG RMK CB TO S
Conditions at: WIII (SOEKARNO-HATTA I, ID) observed 1230 UTC 02 June 2020
Temperature: 29.0°C (84°F)
Dewpoint: 25.0°C (77°F) [RH = 79%]
Pressure (altimeter): 29.85 inches Hg (1011.0 mb)
Winds: from the NE (50 degrees) at 8 MPH (7 knots; 3.6 m/s)
Visibility: 4 miles ( 7 km)
Ceiling: at least 12,000 feet AGL
Clouds: few clouds at 2200 feet AGL
scattered clouds at 2200 feet AGL
Weather: no significant weather observed at this time

METAR text: WIII 021200Z 05009KT 7000 FEW022CB SCT02 29/25 Q1010 TEMPO FM1215 -TSRA RMK CB TO E
Conditions at: WIII (SOEKARNO-HATTA I, ID) observed 1200 UTC 02 June 2020
Temperature: 29.0°C (84°F)
Dewpoint: 25.0°C (77°F) [RH = 79%]
Pressure (altimeter): 29.82 inches Hg (1010.0 mb)
Winds: from the NE (50 degrees) at 10 MPH (9 knots; 4.6 m/s)
Visibility: 4 miles ( 7 km)
Ceiling: at least 12,000 feet AGL
Clouds: few clouds at 2200 feet AGL
Weather: no significant weather observed at this time

METAR text: WIII 021130Z 07010KT 8000 SCT021 29/24 Q1010 TEMPO FM1145 RA
Conditions at: WIII (SOEKARNO-HATTA I, ID) observed 1130 UTC 02 June 2020
Temperature: 29.0°C (84°F)
Dewpoint: 24.0°C (75°F) [RH = 74%]
Pressure (altimeter): 29.82 inches Hg (1010.0 mb)
Winds: from the ENE (70 degrees) at 12 MPH (10 knots; 5.1 m/s)
Visibility: 5 miles ( 8 km)
Ceiling: at least 12,000 feet AGL
Clouds: scattered clouds at 2100 feet AGL
Weather: no significant weather observed at this time

METAR text: WIII 021100Z 07010KT 8000 SCT021 30/25 Q1009 NOSIG
Conditions at: WIII (SOEKARNO-HATTA I, ID) observed 1100 UTC 02 June 2020
Temperature: 30.0°C (86°F)
Dewpoint: 25.0°C (77°F) [RH = 75%]
Pressure (altimeter): 29.79 inches Hg (1009.0 mb)
Winds: from the ENE (70 degrees) at 12 MPH (10 knots; 5.1 m/s)
Visibility: 5 miles ( 8 km)
Ceiling: at least 12,000 feet AGL
Clouds: scattered clouds at 2100 feet AGL
Weather: no significant weather observed at this time

METAR text: WIII 021030Z 07012KT 9000 SCT021 30/24 Q1009 NOSIG
Conditions at: WIII (SOEKARNO-HATTA I, ID) observed 1030 UTC 02 June 2020
Temperature: 30.0°C (86°F)
Dewpoint: 24.0°C (75°F) [RH = 70%]
Pressure (altimeter): 29.79 inches Hg (1009.0 mb)
Winds: from the ENE (70 degrees) at 14 MPH (12 knots; 6.2 m/s)
Visibility: 6 miles ( 9 km)
Ceiling: at least 12,000 feet AGL
Clouds: scattered clouds at 2100 feet AGL
Weather: no significant weather observed at this time

METAR text: WIII 021000Z 06012KT 9999 FEW022 31/24 Q1008 NOSIG
Conditions at: WIII (SOEKARNO-HATTA I, ID) observed 1000 UTC 02 June 2020
Temperature: 31.0°C (88°F)
Dewpoint: 24.0°C (75°F) [RH = 66%]
Pressure (altimeter): 29.76 inches Hg (1008.0 mb)
Winds: from the ENE (60 degrees) at 14 MPH (12 knots; 6.2 m/s)
Visibility: 6 or more miles (10+ km)
Ceiling: at least 12,000 feet AGL
Clouds: few clouds at 2200 feet AGL
Weather: no significant weather observed at this time

METAR text: WIII 020930Z 06013KT 9999 FEW022 31/24 Q1008 NOSIG
Conditions at: WIII (SOEKARNO-HATTA I, ID) observed 0930 UTC 02 June 2020
Temperature: 31.0°C (88°F)
Dewpoint: 24.0°C (75°F) [RH = 66%]
Pressure (altimeter): 29.76 inches Hg (1008.0 mb)
Winds: from the ENE (60 degrees) at 15 MPH (13 knots; 6.7 m/s)
Visibility: 6 or more miles (10+ km)
Ceiling: at least 12,000 feet AGL
Clouds: few clouds at 2200 feet AGL
Weather: no significant weather observed at this time

METAR text: WIII 020900Z 05012KT 9999 FEW022 31/24 Q1008 NOSIG
Conditions at: WIII (SOEKARNO-HATTA I, ID) observed 0900 UTC 02 June 2020
Temperature: 31.0°C (88°F)
Dewpoint: 24.0°C (75°F) [RH = 66%]
Pressure (altimeter): 29.76 inches Hg (1008.0 mb)
Winds: from the NE (50 degrees) at 14 MPH (12 knots; 6.2 m/s)
Visibility: 6 or more miles (10+ km)
Ceiling: at least 12,000 feet AGL
Clouds: few clouds at 2200 feet AGL
Weather: no significant weather observed at this time

METAR text: WIII 020830Z 05015KT 9999 FEW022 32/25 Q1008 NOSIG
Conditions at: WIII (SOEKARNO-HATTA I, ID) observed 0830 UTC 02 June 2020
Temperature: 32.0°C (90°F)
Dewpoint: 25.0°C (77°F) [RH = 67%]
Pressure (altimeter): 29.76 inches Hg (1008.0 mb)
Winds: from the NE (50 degrees) at 17 MPH (15 knots; 7.7 m/s)
Visibility: 6 or more miles (10+ km)
Ceiling: at least 12,000 feet AGL
Clouds: few clouds at 2200 feet AGL
Weather: no significant weather observed at this time

METAR text: WIII 020800Z 05014KT 9999 FEW022 32/25 Q1008 NOSIG
Conditions at: WIII (SOEKARNO-HATTA I, ID) observed 0800 UTC 02 June 2020
Temperature: 32.0°C (90°F)
Dewpoint: 25.0°C (77°F) [RH = 67%]
Pressure (altimeter): 29.76 inches Hg (1008.0 mb)
Winds: from the NE (50 degrees) at 16 MPH (14 knots; 7.2 m/s)
Visibility: 6 or more miles (10+ km)
Ceiling: at least 12,000 feet AGL
Clouds: few clouds at 2200 feet AGL
Weather: no significant weather observed at this time

METAR text: WIII 020730Z 06013KT 9999 FEW022 33/24 Q1008 NOSIG
Conditions at: WIII (SOEKARNO-HATTA I, ID) observed 0730 UTC 02 June 2020
Temperature: 33.0°C (91°F)
Dewpoint: 24.0°C (75°F) [RH = 59%]
Pressure (altimeter): 29.76 inches Hg (1008.0 mb)
Winds: from the ENE (60 degrees) at 15 MPH (13 knots; 6.7 m/s)
Visibility: 6 or more miles (10+ km)
Ceiling: at least 12,000 feet AGL
Clouds: few clouds at 2200 feet AGL
Weather: no significant weather observed at this time

METAR text: WIII 020700Z 05012KT 9999 FEW022 33/24 Q1008 NOSIG
Conditions at: WIII (SOEKARNO-HATTA I, ID) observed 0700 UTC 02 June 2020
Temperature: 33.0°C (91°F)
Dewpoint: 24.0°C (75°F) [RH = 59%]
Pressure (altimeter): 29.76 inches Hg (1008.0 mb)
Winds: from the NE (50 degrees) at 14 MPH (12 knots; 6.2 m/s)
Visibility: 6 or more miles (10+ km)
Ceiling: at least 12,000 feet AGL
Clouds: few clouds at 2200 feet AGL
Weather: no significant weather observed at this time

METAR text: WIII 020630Z 05012KT 9999 SCT022 33/24 Q1008 NOSIG
Conditions at: WIII (SOEKARNO-HATTA I, ID) observed 0630 UTC 02 June 2020
Temperature: 33.0°C (91°F)
Dewpoint: 24.0°C (75°F) [RH = 59%]
Pressure (altimeter): 29.76 inches Hg (1008.0 mb)
Winds: from the NE (50 degrees) at 14 MPH (12 knots; 6.2 m/s)
Visibility: 6 or more miles (10+ km)
Ceiling: at least 12,000 feet AGL
Clouds: scattered clouds at 2200 feet AGL
Weather: no significant weather observed at this time

METAR text: WIII 020600Z 07012KT 9999 SCT022 33/25 Q1009 NOSIG
Conditions at: WIII (SOEKARNO-HATTA I, ID) observed 0600 UTC 02 June 2020
Temperature: 33.0°C (91°F)
Dewpoint: 25.0°C (77°F) [RH = 63%]
Pressure (altimeter): 29.79 inches Hg (1009.0 mb)
Winds: from the ENE (70 degrees) at 14 MPH (12 knots; 6.2 m/s)
Visibility: 6 or more miles (10+ km)
Ceiling: at least 12,000 feet AGL
Clouds: scattered clouds at 2200 feet AGL
Weather: no significant weather observed at this time

Forecast for: WIII (SOEKARNO-HATTA I, ID)
Text: TAF WIII 031700Z 0318/0424 19004KT 6000 SCT020
Forecast period: 1800 UTC 03 June 2020 to 0100 UTC 04 June 2020
Forecast type: FROM: standard forecast or significant change
Winds: from the S (190 degrees) at 5 MPH (4 knots; 2.1 m/s)
Visibility: 4 miles (6 km)
Ceiling: at least 12,000 feet AGL
Clouds: scattered clouds at 2000 feet AGL
Weather: no significant weather forecast for this period
Text: BECMG 0401/0403 08012KT
Forecast period: 0100 UTC 04 June 2020 to 0000 UTC 05 June 2020
Forecast type: BECOMING: Conditions expected to become as follows by 0300 UTC 04 June 2020
Winds: from the E (80 degrees) at 14 MPH (12 knots; 6.2 m/s)
Visibility: 4 miles (6 km)
Ceiling: at least 12,000 feet AGL
Clouds: scattered clouds at 2000 feet AGL
Weather: no significant weather forecast for this period